sensor_id;sensor_type;location;lat;lon;timestamp;pressure;altitude;pressure_sealevel;temperature;humidity
19150;BME280;9707;49.158;8.632;2023-04-27T00:00:47;100544.53;;;21.32;33.18
19150;BME280;9707;49.158;8.632;2023-04-27T00:03:12;100534.66;;;21.31;33.04
19150;BME280;9707;49.158;8.632;2023-04-27T00:05:38;100530.25;;;21.30;33.24
19150;BME280;9707;49.158;8.632;2023-04-27T00:08:06;100533.94;;;21.29;33.12
19150;BME280;9707;49.158;8.632;2023-04-27T00:10:32;100526.66;;;21.29;33.18
19150;BME280;9707;49.158;8.632;2023-04-27T00:12:58;100532.22;;;21.28;33.25
19150;BME280;9707;49.158;8.632;2023-04-27T00:15:23;100532.22;;;21.28;32.84
19150;BME280;9707;49.158;8.632;2023-04-27T00:17:48;100526.94;;;21.26;32.52
19150;BME280;9707;49.158;8.632;2023-04-27T00:20:14;100526.16;;;21.24;32.32
19150;BME280;9707;49.158;8.632;2023-04-27T00:22:39;100520.91;;;21.23;32.35
19150;BME280;9707;49.158;8.632;2023-04-27T00:25:05;100524.56;;;21.22;32.60
19150;BME280;9707;49.158;8.632;2023-04-27T00:27:30;100512.00;;;21.21;32.85
19150;BME280;9707;49.158;8.632;2023-04-27T00:29:56;100513.88;;;21.20;33.02
19150;BME280;9707;49.158;8.632;2023-04-27T00:32:21;100516.59;;;21.20;33.34
19150;BME280;9707;49.158;8.632;2023-04-27T00:34:46;100517.44;;;21.21;33.20
19150;BME280;9707;49.158;8.632;2023-04-27T00:37:12;100515.72;;;21.20;32.96
19150;BME280;9707;49.158;8.632;2023-04-27T00:39:37;100517.69;;;21.18;32.55
19150;BME280;9707;49.158;8.632;2023-04-27T00:42:02;100519.53;;;21.17;32.95
19150;BME280;9707;49.158;8.632;2023-04-27T00:44:28;100519.66;;;21.16;32.87
19150;BME280;9707;49.158;8.632;2023-04-27T00:46:54;100522.34;;;21.16;33.04
19150;BME280;9707;49.158;8.632;2023-04-27T00:49:20;100516.22;;;21.14;33.28
19150;BME280;9707;49.158;8.632;2023-04-27T00:51:46;100514.50;;;21.13;33.11
19150;BME280;9707;49.158;8.632;2023-04-27T00:54:14;100512.78;;;21.12;33.06
19150;BME280;9707;49.158;8.632;2023-04-27T00:56:40;100510.91;;;21.12;33.34
19150;BME280;9707;49.158;8.632;2023-04-27T00:59:05;100520.91;;;21.12;33.31
19150;BME280;9707;49.158;8.632;2023-04-27T01:01:30;100519.16;;;21.11;33.13
19150;BME280;9707;49.158;8.632;2023-04-27T01:03:56;100514.72;;;21.10;33.48
19150;BME280;9707;49.158;8.632;2023-04-27T01:06:21;100522.00;;;21.09;32.67
19150;BME280;9707;49.158;8.632;2023-04-27T01:08:46;100522.13;;;21.08;32.10
19150;BME280;9707;49.158;8.632;2023-04-27T01:11:11;100522.34;;;21.05;32.23
19150;BME280;9707;49.158;8.632;2023-04-27T01:13:37;100525.19;;;21.03;32.58
19150;BME280;9707;49.158;8.632;2023-04-27T01:16:02;100525.31;;;21.02;33.08
19150;BME280;9707;49.158;8.632;2023-04-27T01:18:27;100521.75;;;21.01;32.82
19150;BME280;9707;49.158;8.632;2023-04-27T01:20:53;100523.47;;;21.02;33.30
19150;BME280;9707;49.158;8.632;2023-04-27T01:23:18;100533.44;;;21.02;33.38
19150;BME280;9707;49.158;8.632;2023-04-27T01:25:44;100529.00;;;21.01;33.52
19150;BME280;9707;49.158;8.632;2023-04-27T01:28:09;100529.13;;;20.99;33.69
19150;BME280;9707;49.158;8.632;2023-04-27T01:30:34;100529.97;;;21.00;33.29
19150;BME280;9707;49.158;8.632;2023-04-27T01:32:59;100523.72;;;20.99;33.22
19150;BME280;9707;49.158;8.632;2023-04-27T01:35:25;100521.13;;;20.98;33.50
19150;BME280;9707;49.158;8.632;2023-04-27T01:37:50;100531.97;;;20.98;33.41
19150;BME280;9707;49.158;8.632;2023-04-27T01:40:15;100521.13;;;20.98;33.30
19150;BME280;9707;49.158;8.632;2023-04-27T01:42:41;100526.66;;;20.96;33.47
19150;BME280;9707;49.158;8.632;2023-04-27T01:45:07;100523.97;;;20.96;33.26
19150;BME280;9707;49.158;8.632;2023-04-27T01:47:32;100518.66;;;20.95;33.36
19150;BME280;9707;49.158;8.632;2023-04-27T01:49:57;100516.81;;;20.95;33.37
19150;BME280;9707;49.158;8.632;2023-04-27T01:52:23;100517.94;;;20.93;33.35
19150;BME280;9707;49.158;8.632;2023-04-27T01:54:48;100515.22;;;20.93;33.41
19150;BME280;9707;49.158;8.632;2023-04-27T01:57:13;100523.34;;;20.93;33.25
19150;BME280;9707;49.158;8.632;2023-04-27T01:59:39;100529.59;;;20.93;33.51
19150;BME280;9707;49.158;8.632;2023-04-27T02:02:04;100528.75;;;20.93;33.32
19150;BME280;9707;49.158;8.632;2023-04-27T02:04:29;100527.03;;;20.92;32.92
19150;BME280;9707;49.158;8.632;2023-04-27T02:06:54;100530.69;;;20.91;33.03
19150;BME280;9707;49.158;8.632;2023-04-27T02:09:20;100529.00;;;20.90;33.47
19150;BME280;9707;49.158;8.632;2023-04-27T02:11:45;100530.84;;;20.89;33.30
19150;BME280;9707;49.158;8.632;2023-04-27T02:14:10;100538.06;;;20.89;33.40
19150;BME280;9707;49.158;8.632;2023-04-27T02:16:36;100534.47;;;20.88;33.25
19150;BME280;9707;49.158;8.632;2023-04-27T02:19:01;100542.59;;;20.88;33.29
19150;BME280;9707;49.158;8.632;2023-04-27T02:21:27;100535.47;;;20.87;33.36
19150;BME280;9707;49.158;8.632;2023-04-27T02:23:52;100524.63;;;20.87;33.32
19150;BME280;9707;49.158;8.632;2023-04-27T02:26:19;100523.81;;;20.87;33.32
19150;BME280;9707;49.158;8.632;2023-04-27T02:28:45;100531.91;;;20.87;33.10
19150;BME280;9707;49.158;8.632;2023-04-27T02:31:11;100526.50;;;20.87;33.36
19150;BME280;9707;49.158;8.632;2023-04-27T02:33:38;100523.81;;;20.87;33.53
19150;BME280;9707;49.158;8.632;2023-04-27T02:36:03;100528.34;;;20.86;33.56
19150;BME280;9707;49.158;8.632;2023-04-27T02:38:29;100532.75;;;20.87;33.65
19150;BME280;9707;49.158;8.632;2023-04-27T02:40:54;100535.47;;;20.87;33.71
19150;BME280;9707;49.158;8.632;2023-04-27T02:43:20;100537.19;;;20.88;33.66
19150;BME280;9707;49.158;8.632;2023-04-27T02:45:45;100538.06;;;20.89;33.65
19150;BME280;9707;49.158;8.632;2023-04-27T02:48:11;100530.84;;;20.89;33.42
19150;BME280;9707;49.158;8.632;2023-04-27T02:50:43;100527.22;;;20.89;33.39
19150;BME280;9707;49.158;8.632;2023-04-27T02:53:09;100539.81;;;20.90;33.66
19150;BME280;9707;49.158;8.632;2023-04-27T02:55:34;100548.81;;;20.90;33.80
19150;BME280;9707;49.158;8.632;2023-04-27T02:58:00;100545.22;;;20.90;33.63
19150;BME280;9707;49.158;8.632;2023-04-27T03:00:25;100545.22;;;20.90;33.60
19150;BME280;9707;49.158;8.632;2023-04-27T03:02:51;100547.94;;;20.90;33.33
19150;BME280;9707;49.158;8.632;2023-04-27T03:05:16;100548.03;;;20.88;33.47
19150;BME280;9707;49.158;8.632;2023-04-27T03:07:41;100548.91;;;20.89;32.96
19150;BME280;9707;49.158;8.632;2023-04-27T03:10:07;100548.16;;;20.87;33.52
19150;BME280;9707;49.158;8.632;2023-04-27T03:12:33;100552.59;;;20.88;33.29
19150;BME280;9707;49.158;8.632;2023-04-27T03:14:58;100547.19;;;20.88;33.16
19150;BME280;9707;49.158;8.632;2023-04-27T03:17:24;100543.59;;;20.87;33.49
19150;BME280;9707;49.158;8.632;2023-04-27T03:19:49;100548.16;;;20.87;33.58
19150;BME280;9707;49.158;8.632;2023-04-27T03:22:14;100545.47;;;20.87;33.64
19150;BME280;9707;49.158;8.632;2023-04-27T03:24:40;100539.16;;;20.86;33.74
19150;BME280;9707;49.158;8.632;2023-04-27T03:27:05;100540.88;;;20.87;33.60
19150;BME280;9707;49.158;8.632;2023-04-27T03:29:30;100548.91;;;20.89;33.45
19150;BME280;9707;49.158;8.632;2023-04-27T03:31:56;100548.03;;;20.88;33.39
19150;BME280;9707;49.158;8.632;2023-04-27T03:34:21;100551.72;;;20.87;33.10
19150;BME280;9707;49.158;8.632;2023-04-27T03:36:47;100558.84;;;20.88;33.00
19150;BME280;9707;49.158;8.632;2023-04-27T03:39:13;100554.44;;;20.87;33.48
19150;BME280;9707;49.158;8.632;2023-04-27T03:41:38;100560.84;;;20.86;33.05
19150;BME280;9707;49.158;8.632;2023-04-27T03:44:03;100560.84;;;20.86;33.24
19150;BME280;9707;49.158;8.632;2023-04-27T03:46:29;100559.00;;;20.87;33.08
19150;BME280;9707;49.158;8.632;2023-04-27T03:48:54;100554.53;;;20.86;32.99
19150;BME280;9707;49.158;8.632;2023-04-27T03:51:19;100557.25;;;20.86;33.39
19150;BME280;9707;49.158;8.632;2023-04-27T03:53:45;100559.97;;;20.86;33.51
19150;BME280;9707;49.158;8.632;2023-04-27T03:56:10;100556.28;;;20.87;33.36
19150;BME280;9707;49.158;8.632;2023-04-27T03:58:35;100555.41;;;20.86;33.38
19150;BME280;9707;49.158;8.632;2023-04-27T04:01:01;100550.00;;;20.86;33.67
19150;BME280;9707;49.158;8.632;2023-04-27T04:03:26;100553.69;;;20.85;33.40
19150;BME280;9707;49.158;8.632;2023-04-27T04:05:51;100556.28;;;20.87;33.48
19150;BME280;9707;49.158;8.632;2023-04-27T04:08:16;100549.13;;;20.86;33.37
19150;BME280;9707;49.158;8.632;2023-04-27T04:10:42;100557.13;;;20.87;33.42
19150;BME280;9707;49.158;8.632;2023-04-27T04:13:07;100562.66;;;20.86;33.43
19150;BME280;9707;49.158;8.632;2023-04-27T04:15:32;100553.69;;;20.85;33.27
19150;BME280;9707;49.158;8.632;2023-04-27T04:17:57;100551.84;;;20.86;33.56
19150;BME280;9707;49.158;8.632;2023-04-27T04:20:23;100558.22;;;20.85;33.21
19150;BME280;9707;49.158;8.632;2023-04-27T04:22:48;100556.53;;;20.84;33.41
19150;BME280;9707;49.158;8.632;2023-04-27T04:25:13;100561.94;;;20.84;33.17
19150;BME280;9707;49.158;8.632;2023-04-27T04:27:39;100566.47;;;20.83;33.04
19150;BME280;9707;49.158;8.632;2023-04-27T04:30:05;100555.66;;;20.83;33.01
19150;BME280;9707;49.158;8.632;2023-04-27T04:32:31;100552.09;;;20.83;33.02
19150;BME280;9707;49.158;8.632;2023-04-27T04:34:57;100552.09;;;20.83;33.35
19150;BME280;9707;49.158;8.632;2023-04-27T04:37:23;100553.09;;;20.82;33.25
19150;BME280;9707;49.158;8.632;2023-04-27T04:39:48;100551.22;;;20.82;33.42
19150;BME280;9707;49.158;8.632;2023-04-27T04:42:14;100553.91;;;20.82;33.22
19150;BME280;9707;49.158;8.632;2023-04-27T04:44:39;100558.50;;;20.82;33.72
19150;BME280;9707;49.158;8.632;2023-04-27T04:47:04;100563.91;;;20.82;33.71
19150;BME280;9707;49.158;8.632;2023-04-27T04:49:30;100572.75;;;20.84;33.58
19150;BME280;9707;49.158;8.632;2023-04-27T04:51:56;100572.88;;;20.82;33.27
19150;BME280;9707;49.158;8.632;2023-04-27T04:54:21;100580.16;;;20.82;33.14
19150;BME280;9707;49.158;8.632;2023-04-27T04:56:46;100568.44;;;20.81;33.39
19150;BME280;9707;49.158;8.632;2023-04-27T04:59:12;100570.16;;;20.82;33.28
19150;BME280;9707;49.158;8.632;2023-04-27T05:01:37;100573.88;;;20.81;33.58
19150;BME280;9707;49.158;8.632;2023-04-27T05:04:02;100559.34;;;20.82;33.57
19150;BME280;9707;49.158;8.632;2023-04-27T05:06:28;100567.47;;;20.82;33.17
19150;BME280;9707;49.158;8.632;2023-04-27T05:08:53;100572.88;;;20.82;33.02
19150;BME280;9707;49.158;8.632;2023-04-27T05:11:19;100569.31;;;20.82;33.38
19150;BME280;9707;49.158;8.632;2023-04-27T05:13:44;100573.88;;;20.81;33.44
19150;BME280;9707;49.158;8.632;2023-04-27T05:16:09;100576.56;;;20.81;33.25
19150;BME280;9707;49.158;8.632;2023-04-27T05:18:35;100571.16;;;20.81;33.59
19150;BME280;9707;49.158;8.632;2023-04-27T05:21:00;100579.28;;;20.81;33.28
19150;BME280;9707;49.158;8.632;2023-04-27T05:23:26;100575.59;;;20.82;33.35
19150;BME280;9707;49.158;8.632;2023-04-27T05:25:51;100583.72;;;20.82;33.21
19150;BME280;9707;49.158;8.632;2023-04-27T05:28:17;100586.41;;;20.82;33.43
19150;BME280;9707;49.158;8.632;2023-04-27T05:30:42;100580.16;;;20.82;33.27
19150;BME280;9707;49.158;8.632;2023-04-27T05:33:07;100587.28;;;20.83;33.07
19150;BME280;9707;49.158;8.632;2023-04-27T05:35:33;100593.69;;;20.82;32.08
19150;BME280;9707;49.158;8.632;2023-04-27T05:37:59;100595.75;;;20.78;31.43
19150;BME280;9707;49.158;8.632;2023-04-27T05:40:24;100600.53;;;20.75;31.34
19150;BME280;9707;49.158;8.632;2023-04-27T05:42:50;100609.88;;;20.71;31.54
19150;BME280;9707;49.158;8.632;2023-04-27T05:45:15;100607.31;;;20.69;31.77
19150;BME280;9707;49.158;8.632;2023-04-27T05:47:41;100600.28;;;20.67;32.24
19150;BME280;9707;49.158;8.632;2023-04-27T05:50:06;100613.81;;;20.67;30.89
19150;BME280;9707;49.158;8.632;2023-04-27T05:52:32;100611.34;;;20.64;31.38
19150;BME280;9707;49.158;8.632;2023-04-27T05:54:57;100617.75;;;20.63;31.81
19150;BME280;9707;49.158;8.632;2023-04-27T05:57:23;100619.47;;;20.64;32.31
19150;BME280;9707;49.158;8.632;2023-04-27T05:59:49;100612.06;;;20.66;32.52
19150;BME280;9707;49.158;8.632;2023-04-27T06:02:14;100616.53;;;20.67;32.63
19150;BME280;9707;49.158;8.632;2023-04-27T06:04:40;100619.09;;;20.68;32.61
19150;BME280;9707;49.158;8.632;2023-04-27T06:07:13;100618.97;;;20.70;32.17
19150;BME280;9707;49.158;8.632;2023-04-27T06:09:38;100618.88;;;20.71;32.48
19150;BME280;9707;49.158;8.632;2023-04-27T06:12:05;100623.31;;;20.72;32.05
19150;BME280;9707;49.158;8.632;2023-04-27T06:14:31;100628.72;;;20.72;32.14
19150;BME280;9707;49.158;8.632;2023-04-27T06:16:57;100624.19;;;20.73;31.91
19150;BME280;9707;49.158;8.632;2023-04-27T06:19:22;100625.91;;;20.74;31.67
19150;BME280;9707;49.158;8.632;2023-04-27T06:21:49;100631.19;;;20.75;32.08
19150;BME280;9707;49.158;8.632;2023-04-27T06:24:14;100627.50;;;20.76;31.64
19150;BME280;9707;49.158;8.632;2023-04-27T06:26:39;100631.09;;;20.77;32.01
19150;BME280;9707;49.158;8.632;2023-04-27T06:29:05;100631.81;;;20.79;32.66
19150;BME280;9707;49.158;8.632;2023-04-27T06:31:32;100630.84;;;20.80;32.69
19150;BME280;9707;49.158;8.632;2023-04-27T06:33:57;100629.84;;;20.81;32.36
19150;BME280;9707;49.158;8.632;2023-04-27T06:36:24;100628.91;;;20.82;32.58
19150;BME280;9707;49.158;8.632;2023-04-27T06:38:50;100631.47;;;20.83;32.60
19150;BME280;9707;49.158;8.632;2023-04-27T06:41:23;100639.47;;;20.85;32.72
19150;BME280;9707;49.158;8.632;2023-04-27T06:43:49;100624.94;;;20.86;32.53
19150;BME280;9707;49.158;8.632;2023-04-27T06:46:14;100637.38;;;20.88;32.09
19150;BME280;9707;49.158;8.632;2023-04-27T06:48:39;100635.66;;;20.87;32.12
19150;BME280;9707;49.158;8.632;2023-04-27T06:51:05;100640.09;;;20.88;32.38
19150;BME280;9707;49.158;8.632;2023-04-27T06:53:30;100641.88;;;20.89;31.79
19150;BME280;9707;49.158;8.632;2023-04-27T06:55:56;100634.66;;;20.88;30.99
19150;BME280;9707;49.158;8.632;2023-04-27T06:58:21;100638.47;;;20.86;30.52
19150;BME280;9707;49.158;8.632;2023-04-27T07:00:47;100631.47;;;20.83;30.73
19150;BME280;9707;49.158;8.632;2023-04-27T07:03:12;100630.00;;;20.79;30.54
19150;BME280;9707;49.158;8.632;2023-04-27T07:05:38;100630.09;;;20.78;30.45
19150;BME280;9707;49.158;8.632;2023-04-27T07:08:03;100639.22;;;20.77;30.87
19150;BME280;9707;49.158;8.632;2023-04-27T07:10:28;100631.09;;;20.77;31.95
19150;BME280;9707;49.158;8.632;2023-04-27T07:12:54;100639.06;;;20.78;31.85
19150;BME280;9707;49.158;8.632;2023-04-27T07:15:20;100635.16;;;20.82;31.83
19150;BME280;9707;49.158;8.632;2023-04-27T07:17:45;100645.75;;;20.85;31.77
19150;BME280;9707;49.158;8.632;2023-04-27T07:20:11;100645.50;;;20.88;31.66
19150;BME280;9707;49.158;8.632;2023-04-27T07:22:38;100640.97;;;20.89;32.03
19150;BME280;9707;49.158;8.632;2023-04-27T07:25:04;100643.47;;;20.92;32.60
19150;BME280;9707;49.158;8.632;2023-04-27T07:27:30;100651.34;;;20.95;32.08
19150;BME280;9707;49.158;8.632;2023-04-27T07:29:56;100644.00;;;20.97;31.54
19150;BME280;9707;49.158;8.632;2023-04-27T07:32:21;100644.84;;;20.97;31.11
19150;BME280;9707;49.158;8.632;2023-04-27T07:34:46;100644.72;;;20.99;31.29
19150;BME280;9707;49.158;8.632;2023-04-27T07:37:12;100637.31;;;21.01;32.39
19150;BME280;9707;49.158;8.632;2023-04-27T07:39:38;100635.38;;;21.03;31.49
19150;BME280;9707;49.158;8.632;2023-04-27T07:42:03;100638.09;;;21.03;31.25
19150;BME280;9707;49.158;8.632;2023-04-27T07:44:29;100641.78;;;21.02;30.66
19150;BME280;9707;49.158;8.632;2023-04-27T07:46:55;100636.38;;;21.02;31.04
19150;BME280;9707;49.158;8.632;2023-04-27T07:49:22;100637.22;;;21.02;31.06
19150;BME280;9707;49.158;8.632;2023-04-27T07:51:49;100636.38;;;21.02;30.88
19150;BME280;9707;49.158;8.632;2023-04-27T07:54:14;100633.66;;;21.02;30.63
19150;BME280;9707;49.158;8.632;2023-04-27T07:56:41;100627.38;;;21.01;31.20
19150;BME280;9707;49.158;8.632;2023-04-27T07:59:07;100626.38;;;21.02;31.17
19150;BME280;9707;49.158;8.632;2023-04-27T08:01:32;100624.44;;;21.04;31.13
19150;BME280;9707;49.158;8.632;2023-04-27T08:03:57;100621.59;;;21.06;30.99
19150;BME280;9707;49.158;8.632;2023-04-27T08:06:22;100620.63;;;21.07;31.21
19150;BME280;9707;49.158;8.632;2023-04-27T08:08:48;100624.06;;;21.09;31.35
19150;BME280;9707;49.158;8.632;2023-04-27T08:11:13;100613.22;;;21.09;31.30
19150;BME280;9707;49.158;8.632;2023-04-27T08:13:38;100626.78;;;21.09;31.40
19150;BME280;9707;49.158;8.632;2023-04-27T08:16:04;100616.66;;;21.11;31.12
19150;BME280;9707;49.158;8.632;2023-04-27T08:18:29;100620.25;;;21.11;30.84
19150;BME280;9707;49.158;8.632;2023-04-27T08:20:54;100622.09;;;21.11;30.53
19150;BME280;9707;49.158;8.632;2023-04-27T08:23:20;100617.66;;;21.10;30.15
19150;BME280;9707;49.158;8.632;2023-04-27T08:25:45;100623.34;;;21.07;30.52
19150;BME280;9707;49.158;8.632;2023-04-27T08:28:11;100625.78;;;21.10;30.67
19150;BME280;9707;49.158;8.632;2023-04-27T08:30:37;100617.66;;;21.10;30.63
19150;BME280;9707;49.158;8.632;2023-04-27T08:33:02;100614.84;;;21.11;31.09
19150;BME280;9707;49.158;8.632;2023-04-27T08:35:27;100612.00;;;21.13;31.45
19150;BME280;9707;49.158;8.632;2023-04-27T08:37:53;100612.63;;;21.16;31.10
19150;BME280;9707;49.158;8.632;2023-04-27T08:40:18;100613.50;;;21.17;31.29
19150;BME280;9707;49.158;8.632;2023-04-27T08:42:53;100614.22;;;21.19;30.80
19150;BME280;9707;49.158;8.632;2023-04-27T08:45:21;100613.13;;;21.21;30.71
19150;BME280;9707;49.158;8.632;2023-04-27T08:47:47;100616.69;;;21.22;31.18
19150;BME280;9707;49.158;8.632;2023-04-27T08:50:12;100613.84;;;21.23;30.74
19150;BME280;9707;49.158;8.632;2023-04-27T08:52:37;100612.13;;;21.22;30.44
19150;BME280;9707;49.158;8.632;2023-04-27T08:55:03;100620.25;;;21.22;30.46
19150;BME280;9707;49.158;8.632;2023-04-27T08:57:29;100614.13;;;21.20;29.96
19150;BME280;9707;49.158;8.632;2023-04-27T08:59:58;100615.22;;;21.18;29.97
19150;BME280;9707;49.158;8.632;2023-04-27T09:02:35;100620.63;;;21.18;29.95
19150;BME280;9707;49.158;8.632;2023-04-27T09:05:01;100621.63;;;21.17;30.51
19150;BME280;9707;49.158;8.632;2023-04-27T09:07:27;100619.66;;;21.19;30.33
19150;BME280;9707;49.158;8.632;2023-04-27T09:10:01;100618.66;;;21.20;29.84
19150;BME280;9707;49.158;8.632;2023-04-27T09:12:26;100622.38;;;21.19;29.77
19150;BME280;9707;49.158;8.632;2023-04-27T09:14:59;100618.78;;;21.18;29.92
19150;BME280;9707;49.158;8.632;2023-04-27T09:17:25;100612.41;;;21.19;29.96
19150;BME280;9707;49.158;8.632;2023-04-27T09:19:51;100616.69;;;21.22;29.97
19150;BME280;9707;49.158;8.632;2023-04-27T09:22:17;100614.84;;;21.22;29.41
19150;BME280;9707;49.158;8.632;2023-04-27T09:24:51;100624.81;;;21.22;29.18
19150;BME280;9707;49.158;8.632;2023-04-27T09:27:20;100625.81;;;21.21;29.17
19150;BME280;9707;49.158;8.632;2023-04-27T09:29:46;100625.81;;;21.21;28.97
19150;BME280;9707;49.158;8.632;2023-04-27T09:32:18;100614.84;;;21.22;29.24
19150;BME280;9707;49.158;8.632;2023-04-27T09:34:45;100619.28;;;21.23;29.41
19150;BME280;9707;49.158;8.632;2023-04-27T09:37:11;100615.56;;;21.24;29.13
19150;BME280;9707;49.158;8.632;2023-04-27T09:39:37;100610.81;;;21.28;29.13
19150;BME280;9707;49.158;8.632;2023-04-27T09:42:03;100608.94;;;21.28;28.90
19150;BME280;9707;49.158;8.632;2023-04-27T09:44:29;100605.13;;;21.31;29.16
19150;BME280;9707;49.158;8.632;2023-04-27T09:46:57;100602.31;;;21.32;27.99
19150;BME280;9707;49.158;8.632;2023-04-27T09:49:25;100604.13;;;21.32;28.22
19150;BME280;9707;49.158;8.632;2023-04-27T09:51:50;100601.31;;;21.33;28.16
19150;BME280;9707;49.158;8.632;2023-04-27T09:54:18;100605.75;;;21.34;28.56
19150;BME280;9707;49.158;8.632;2023-04-27T09:57:09;100610.06;;;21.37;28.64
19150;BME280;9707;49.158;8.632;2023-04-27T09:59:42;100600.09;;;21.37;27.99
19150;BME280;9707;49.158;8.632;2023-04-27T10:02:15;100600.09;;;21.37;27.97
19150;BME280;9707;49.158;8.632;2023-04-27T10:05:15;100604.63;;;21.37;28.14
19150;BME280;9707;49.158;8.632;2023-04-27T10:07:46;100593.78;;;21.37;28.35
19150;BME280;9707;49.158;8.632;2023-04-27T10:10:16;100598.25;;;21.38;28.94
19150;BME280;9707;49.158;8.632;2023-04-27T10:12:42;100599.84;;;21.40;28.96
19150;BME280;9707;49.158;8.632;2023-04-27T10:15:15;100595.03;;;21.44;28.86
19150;BME280;9707;49.158;8.632;2023-04-27T10:17:49;100587.63;;;21.46;29.16
19150;BME280;9707;49.158;8.632;2023-04-27T10:20:15;100586.41;;;21.50;29.10
19150;BME280;9707;49.158;8.632;2023-04-27T10:22:44;100590.63;;;21.54;28.47
19150;BME280;9707;49.158;8.632;2023-04-27T10:25:20;100584.91;;;21.57;28.28
19150;BME280;9707;49.158;8.632;2023-04-27T10:27:51;100583.81;;;21.59;28.22
19150;BME280;9707;49.158;8.632;2023-04-27T10:30:18;100584.56;;;21.61;28.93
19150;BME280;9707;49.158;8.632;2023-04-27T10:32:58;100580.75;;;21.64;28.01
19150;BME280;9707;49.158;8.632;2023-04-27T10:35:34;100587.66;;;21.68;28.63
19150;BME280;9707;49.158;8.632;2023-04-27T10:38:08;100589.41;;;21.69;28.16
19150;BME280;9707;49.158;8.632;2023-04-27T10:40:34;100583.09;;;21.68;27.61
19150;BME280;9707;49.158;8.632;2023-04-27T10:43:16;100581.28;;;21.69;28.03
19150;BME280;9707;49.158;8.632;2023-04-27T10:45:42;100583.72;;;21.72;28.38
19150;BME280;9707;49.158;8.632;2023-04-27T10:48:09;100581.75;;;21.74;28.05
19150;BME280;9707;49.158;8.632;2023-04-27T10:50:37;100578.94;;;21.75;27.76
19150;BME280;9707;49.158;8.632;2023-04-27T10:53:05;100576.94;;;21.77;27.38
19150;BME280;9707;49.158;8.632;2023-04-27T10:55:31;100581.50;;;21.77;27.14
19150;BME280;9707;49.158;8.632;2023-04-27T10:57:57;100573.34;;;21.77;27.22
19150;BME280;9707;49.158;8.632;2023-04-27T11:00:34;100573.34;;;21.77;27.02
19150;BME280;9707;49.158;8.632;2023-04-27T11:03:14;100567.09;;;21.76;26.73
19150;BME280;9707;49.158;8.632;2023-04-27T11:05:42;100577.94;;;21.76;26.71
19150;BME280;9707;49.158;8.632;2023-04-27T11:08:10;100565.22;;;21.77;26.72
19150;BME280;9707;49.158;8.632;2023-04-27T11:10:39;100569.53;;;21.79;26.82
19150;BME280;9707;49.158;8.632;2023-04-27T11:13:11;100559.56;;;21.80;26.52
19150;BME280;9707;49.158;8.632;2023-04-27T11:15:43;100561.28;;;21.81;26.47
19150;BME280;9707;49.158;8.632;2023-04-27T11:18:08;100563.00;;;21.82;26.82
19150;BME280;9707;49.158;8.632;2023-04-27T11:20:34;100560.91;;;21.85;26.94
19150;BME280;9707;49.158;8.632;2023-04-27T11:23:00;100562.25;;;21.91;26.83
19150;BME280;9707;49.158;8.632;2023-04-27T11:25:27;100553.13;;;21.92;26.79
19150;BME280;9707;49.158;8.632;2023-04-27T11:27:52;100558.28;;;21.95;26.84
19150;BME280;9707;49.158;8.632;2023-04-27T11:30:19;100560.00;;;21.96;26.59
19150;BME280;9707;49.158;8.632;2023-04-27T11:32:45;100556.19;;;21.98;27.21
19150;BME280;9707;49.158;8.632;2023-04-27T11:35:11;100552.34;;;22.01;27.02
19150;BME280;9707;49.158;8.632;2023-04-27T11:37:36;100553.81;;;22.05;27.07
19150;BME280;9707;49.158;8.632;2023-04-27T11:40:02;100549.00;;;22.08;27.16
19150;BME280;9707;49.158;8.632;2023-04-27T11:42:28;100541.47;;;22.12;26.92
19150;BME280;9707;49.158;8.632;2023-04-27T11:47:29;100536.38;;;22.18;26.74
19150;BME280;9707;49.158;8.632;2023-04-27T11:49:56;100538.09;;;22.19;26.12
19150;BME280;9707;49.158;8.632;2023-04-27T11:52:33;100529.84;;;22.21;26.35
19150;BME280;9707;49.158;8.632;2023-04-27T11:54:59;100533.16;;;22.24;26.76
19150;BME280;9707;49.158;8.632;2023-04-27T11:57:26;100530.31;;;22.26;26.57
19150;BME280;9707;49.158;8.632;2023-04-27T11:59:56;100525.75;;;22.26;26.26
19150;BME280;9707;49.158;8.632;2023-04-27T12:02:24;100528.31;;;22.28;25.97
19150;BME280;9707;49.158;8.632;2023-04-27T12:04:50;100522.91;;;22.28;25.81
19150;BME280;9707;49.158;8.632;2023-04-27T12:07:15;100517.47;;;22.28;25.69
19150;BME280;9707;49.158;8.632;2023-04-27T12:09:41;100508.47;;;22.27;25.43
19150;BME280;9707;49.158;8.632;2023-04-27T12:12:07;100502.94;;;22.29;25.74
19150;BME280;9707;49.158;8.632;2023-04-27T12:14:32;100509.78;;;22.33;25.75
19150;BME280;9707;49.158;8.632;2023-04-27T12:16:57;100506.84;;;22.36;25.89
19150;BME280;9707;49.158;8.632;2023-04-27T12:19:23;100502.13;;;22.38;25.82
19150;BME280;9707;49.158;8.632;2023-04-27T12:21:52;100509.03;;;22.42;25.15
19150;BME280;9707;49.158;8.632;2023-04-27T12:24:18;100505.31;;;22.43;25.10
19150;BME280;9707;49.158;8.632;2023-04-27T12:26:44;100501.50;;;22.45;25.70
19150;BME280;9707;49.158;8.632;2023-04-27T12:29:11;100501.13;;;22.50;25.47
19150;BME280;9707;49.158;8.632;2023-04-27T12:31:36;100485.44;;;22.53;25.81
19150;BME280;9707;49.158;8.632;2023-04-27T12:34:01;100496.03;;;22.56;25.58
19150;BME280;9707;49.158;8.632;2023-04-27T12:36:26;100493.16;;;22.58;25.61
19150;BME280;9707;49.158;8.632;2023-04-27T12:38:57;100488.34;;;22.61;25.73
19150;BME280;9707;49.158;8.632;2023-04-27T12:41:22;100493.50;;;22.64;25.53
19150;BME280;9707;49.158;8.632;2023-04-27T12:43:48;100489.66;;;22.67;26.14
19150;BME280;9707;49.158;8.632;2023-04-27T12:46:13;100488.41;;;22.71;25.87
19150;BME280;9707;49.158;8.632;2023-04-27T12:48:38;100485.41;;;22.74;26.06
19150;BME280;9707;49.158;8.632;2023-04-27T12:51:04;100489.88;;;22.75;25.41
19150;BME280;9707;49.158;8.632;2023-04-27T12:53:31;100487.88;;;22.77;25.32
19150;BME280;9707;49.158;8.632;2023-04-27T12:55:56;100487.59;;;22.80;25.41
19150;BME280;9707;49.158;8.632;2023-04-27T12:58:24;100488.44;;;22.80;25.25